createdAt,value
2023-01-25T00:01:28.445Z,9.65
2023-01-25T00:03:54.871Z,9.30
2023-01-25T00:06:21.095Z,9.77
2023-01-25T00:08:50.815Z,9.32
2023-01-25T00:11:17.885Z,10.98
2023-01-25T00:13:44.151Z,9.93
2023-01-25T00:16:10.414Z,10.25
2023-01-25T00:18:36.719Z,10.18
2023-01-25T00:21:16.399Z,10.23
2023-01-25T00:23:42.656Z,11.07
2023-01-25T00:26:08.883Z,10.30
2023-01-25T00:28:35.269Z,11.55
2023-01-25T00:31:02.153Z,10.50
2023-01-25T00:33:37.342Z,10.15
2023-01-25T00:36:23.566Z,9.80
2023-01-25T00:38:51.314Z,10.63
2023-01-25T00:41:17.829Z,10.38
2023-01-25T00:43:44.030Z,10.88
2023-01-25T00:46:14.419Z,10.88
2023-01-25T00:48:40.655Z,10.45
2023-01-25T00:51:06.952Z,10.05
2023-01-25T00:53:34.108Z,12.18
2023-01-25T00:56:00.334Z,10.38
2023-01-25T00:58:26.862Z,11.07
2023-01-25T01:00:53.968Z,10.00
2023-01-25T01:03:20.352Z,9.70
2023-01-25T01:05:46.696Z,11.38
2023-01-25T01:08:13.493Z,10.57
2023-01-25T01:10:39.841Z,11.13
2023-01-25T01:13:06.690Z,11.25
2023-01-25T01:15:35.666Z,11.63
2023-01-25T01:18:02.066Z,10.75
2023-01-25T01:20:28.338Z,10.95
2023-01-25T01:22:57.233Z,11.77
2023-01-25T01:25:23.486Z,11.30
2023-01-25T01:27:49.699Z,11.82
2023-01-25T01:30:16.080Z,11.93
2023-01-25T01:32:42.390Z,11.48
2023-01-25T01:35:09.308Z,11.73
2023-01-25T01:37:36.635Z,11.63
2023-01-25T01:40:02.860Z,10.80
2023-01-25T01:42:29.475Z,11.45
2023-01-25T01:44:55.925Z,12.05
2023-01-25T01:47:25.550Z,11.20
2023-01-25T01:49:56.921Z,12.65
2023-01-25T01:52:31.618Z,11.30
2023-01-25T01:55:12.152Z,11.85
2023-01-25T01:57:43.264Z,11.95
2023-01-25T02:00:16.047Z,12.07
2023-01-25T02:02:42.349Z,12.30
2023-01-25T02:05:11.651Z,12.65
2023-01-25T02:07:39.195Z,12.75
2023-01-25T02:10:06.476Z,12.25
2023-01-25T02:12:32.705Z,12.15
2023-01-25T02:14:58.933Z,13.07
2023-01-25T02:17:33.558Z,12.10
2023-01-25T02:20:23.763Z,12.07
2023-01-25T02:22:56.115Z,12.63
2023-01-25T02:25:22.347Z,12.45
2023-01-25T02:27:50.950Z,11.85
2023-01-25T02:30:17.189Z,12.00
2023-01-25T02:32:43.376Z,12.60
2023-01-25T02:35:19.229Z,11.52
2023-01-25T02:37:45.884Z,12.18
2023-01-25T02:40:12.202Z,12.07
2023-01-25T02:42:41.365Z,9.23
2023-01-25T02:45:09.800Z,10.90
2023-01-25T02:47:36.067Z,11.70
2023-01-25T02:50:02.688Z,11.88
2023-01-25T02:52:28.891Z,12.65
2023-01-25T02:54:55.490Z,11.93
2023-01-25T02:57:23.170Z,12.45
2023-01-25T02:59:49.460Z,11.55
2023-01-25T03:02:15.733Z,11.45
2023-01-25T03:04:41.962Z,11.95
2023-01-25T03:07:10.640Z,12.35
2023-01-25T03:09:36.864Z,12.13
2023-01-25T03:12:03.287Z,12.05
2023-01-25T03:14:29.502Z,13.02
2023-01-25T03:16:55.725Z,10.82
2023-01-25T03:19:21.934Z,13.75
2023-01-25T03:21:48.156Z,12.50
2023-01-25T03:24:14.406Z,12.55
2023-01-25T03:26:59.658Z,12.60
2023-01-25T03:29:25.896Z,11.50
2023-01-25T03:31:52.220Z,11.40
2023-01-25T03:34:18.532Z,13.02
2023-01-25T03:36:44.718Z,12.10
2023-01-25T03:39:10.921Z,11.43
2023-01-25T03:41:37.121Z,12.75
2023-01-25T03:44:03.367Z,11.80
2023-01-25T03:46:30.032Z,12.38
2023-01-25T03:48:56.292Z,12.50
2023-01-25T03:51:22.493Z,12.48
2023-01-25T03:53:48.673Z,11.93
2023-01-25T03:56:20.180Z,12.70
2023-01-25T03:58:46.703Z,12.23
2023-01-25T04:01:12.990Z,11.75
2023-01-25T04:03:39.241Z,12.70
2023-01-25T04:06:05.846Z,12.95
2023-01-25T04:08:32.367Z,13.23
2023-01-25T04:11:03.344Z,11.88
2023-01-25T04:15:55.756Z,12.13
2023-01-25T04:18:22.277Z,12.20
2023-01-25T04:20:54.932Z,12.88
2023-01-25T04:23:21.567Z,12.55
2023-01-25T04:26:01.072Z,12.02
2023-01-25T04:28:27.559Z,12.25
2023-01-25T04:30:54.618Z,11.98
2023-01-25T04:33:21.248Z,10.73
2023-01-25T04:35:47.478Z,12.73
2023-01-25T04:38:13.848Z,12.75
2023-01-25T04:40:40.315Z,11.80
2023-01-25T04:43:06.854Z,10.90
2023-01-25T04:45:33.582Z,12.85
2023-01-25T04:48:00.930Z,12.50
2023-01-25T04:50:27.434Z,11.93
2023-01-25T04:52:53.989Z,12.57
2023-01-25T04:55:20.553Z,12.95
2023-01-25T04:57:49.134Z,12.82
2023-01-25T05:00:15.744Z,12.55
2023-01-25T05:02:42.177Z,12.23
2023-01-25T05:05:08.963Z,13.18
2023-01-25T05:07:35.532Z,12.65
2023-01-25T05:10:01.769Z,13.98
2023-01-25T05:12:27.961Z,12.82
2023-01-25T05:14:54.220Z,13.18
2023-01-25T05:17:20.832Z,14.25
2023-01-25T05:19:47.097Z,15.05
2023-01-25T05:22:14.034Z,14.55
2023-01-25T05:24:41.549Z,14.60
2023-01-25T05:27:09.775Z,13.95
2023-01-25T05:29:37.719Z,14.98
2023-01-25T05:32:05.348Z,15.27
2023-01-25T05:34:31.705Z,15.02
2023-01-25T05:36:58.403Z,13.68
2023-01-25T05:39:24.688Z,13.38
2023-01-25T05:41:51.035Z,15.68
2023-01-25T05:44:17.388Z,15.73
2023-01-25T05:46:43.671Z,14.48
2023-01-25T05:49:10.647Z,17.02
2023-01-25T05:51:38.151Z,16.48
2023-01-25T05:54:05.788Z,15.82
2023-01-25T05:56:32.500Z,17.13
2023-01-25T05:58:59.495Z,17.50
2023-01-25T06:01:26.158Z,16.05
2023-01-25T06:03:52.709Z,16.23
2023-01-25T06:06:18.930Z,17.13
2023-01-25T06:08:45.151Z,15.93
2023-01-25T06:11:13.136Z,15.95
2023-01-25T06:13:39.745Z,14.52
2023-01-25T06:16:06.129Z,16.75
2023-01-25T06:18:32.786Z,17.35
2023-01-25T06:20:59.264Z,15.63
2023-01-25T06:23:26.184Z,16.30
2023-01-25T06:25:53.835Z,15.93
2023-01-25T06:28:20.112Z,14.40
2023-01-25T06:30:46.474Z,16.80
2023-01-25T06:33:12.765Z,16.60
2023-01-25T06:35:40.296Z,17.38
2023-01-25T06:38:06.558Z,17.13
2023-01-25T06:40:32.760Z,17.83
2023-01-25T06:43:08.794Z,16.25
2023-01-25T06:45:35.093Z,11.95
2023-01-25T06:48:01.588Z,17.65
2023-01-25T06:50:28.099Z,15.85
2023-01-25T06:52:54.714Z,15.77
2023-01-25T06:55:20.941Z,14.65
2023-01-25T06:57:47.579Z,17.40
2023-01-25T07:00:14.499Z,17.23
2023-01-25T07:02:40.735Z,18.73
2023-01-25T07:05:07.785Z,18.52
2023-01-25T07:07:34.244Z,17.45
2023-01-25T07:10:01.833Z,16.60
2023-01-25T07:12:28.470Z,17.40
2023-01-25T07:14:57.674Z,15.65
2023-01-25T07:17:23.887Z,18.77
2023-01-25T07:19:50.148Z,17.40
2023-01-25T07:22:17.783Z,17.20
2023-01-25T07:24:49.757Z,18.27
2023-01-25T07:27:18.265Z,17.17
2023-01-25T07:29:44.578Z,18.70
2023-01-25T07:32:16.638Z,17.73
2023-01-25T07:34:42.932Z,19.17
2023-01-25T07:37:10.001Z,17.08
2023-01-25T07:39:36.307Z,12.70
2023-01-25T07:42:02.535Z,14.98
2023-01-25T07:44:28.770Z,18.63
2023-01-25T07:46:55.147Z,19.05
2023-01-25T07:49:21.465Z,18.10
2023-01-25T07:51:47.640Z,19.33
2023-01-25T07:54:13.909Z,17.90
2023-01-25T07:56:40.641Z,18.65
2023-01-25T07:59:09.942Z,19.63
2023-01-25T08:01:36.853Z,18.92
2023-01-25T08:04:04.519Z,19.15
2023-01-25T08:06:35.350Z,19.10
2023-01-25T08:09:03.957Z,17.00
2023-01-25T08:11:31.024Z,17.67
2023-01-25T08:13:57.461Z,17.00
2023-01-25T08:16:25.108Z,14.15
2023-01-25T08:18:52.320Z,18.40
2023-01-25T08:21:18.780Z,18.00
2023-01-25T08:23:45.268Z,19.10
2023-01-25T08:26:12.840Z,19.20
2023-01-25T08:28:39.121Z,19.73
2023-01-25T08:31:09.606Z,17.85
2023-01-25T08:33:36.557Z,17.83
2023-01-25T08:36:02.894Z,19.80
2023-01-25T08:38:29.141Z,18.25
2023-01-25T08:40:55.381Z,18.08
2023-01-25T08:43:21.659Z,18.05
2023-01-25T08:45:55.404Z,14.93
2023-01-25T08:48:21.611Z,18.10
2023-01-25T08:50:47.860Z,17.45
2023-01-25T08:53:14.475Z,17.85
2023-01-25T08:55:42.829Z,16.27
2023-01-25T08:58:10.963Z,16.33
2023-01-25T09:00:40.465Z,18.15
2023-01-25T09:03:07.036Z,16.65
2023-01-25T09:05:33.776Z,18.35
2023-01-25T09:08:00.850Z,18.38
2023-01-25T09:10:27.185Z,18.55
2023-01-25T09:12:53.728Z,18.75
2023-01-25T09:15:19.954Z,19.80
2023-01-25T09:17:46.143Z,17.98
2023-01-25T09:20:12.448Z,18.50
2023-01-25T09:22:40.513Z,19.05
2023-01-25T09:25:06.820Z,19.60
2023-01-25T09:27:33.391Z,18.77
2023-01-25T09:30:02.325Z,16.83
2023-01-25T09:32:29.701Z,14.68
2023-01-25T09:34:56.015Z,18.83
2023-01-25T09:37:22.206Z,17.08
2023-01-25T09:39:48.400Z,17.92
2023-01-25T09:42:33.505Z,19.30
2023-01-25T09:45:18.443Z,17.88
2023-01-25T09:47:47.653Z,18.58
2023-01-25T09:50:16.907Z,19.02
2023-01-25T09:52:46.105Z,22.02
2023-01-25T09:55:13.525Z,18.70
2023-01-25T09:57:41.241Z,17.98
2023-01-25T10:00:30.793Z,16.17
2023-01-25T10:03:05.541Z,21.17
2023-01-25T10:05:34.751Z,17.02
2023-01-25T10:08:07.111Z,17.45
2023-01-25T10:10:35.635Z,18.08
2023-01-25T10:13:02.977Z,18.42
2023-01-25T10:15:32.884Z,18.77
2023-01-25T10:18:06.535Z,18.27
2023-01-25T10:20:32.698Z,19.13
2023-01-25T10:23:17.713Z,16.10
2023-01-25T10:26:07.246Z,18.55
2023-01-25T10:28:43.163Z,18.85
2023-01-25T10:31:18.131Z,19.30
2023-01-25T10:33:45.851Z,20.05
2023-01-25T10:36:16.241Z,19.35
2023-01-25T10:39:07.257Z,18.50
2023-01-25T10:41:41.706Z,18.33
2023-01-25T10:44:24.401Z,19.50
2023-01-25T10:46:53.481Z,20.48
2023-01-25T10:49:38.597Z,19.13
2023-01-25T10:52:15.507Z,18.85
2023-01-25T10:54:41.990Z,20.38
2023-01-25T10:57:09.211Z,21.23
2023-01-25T10:59:36.314Z,18.30
2023-01-25T11:02:21.037Z,19.23
2023-01-25T11:04:48.535Z,19.58
2023-01-25T11:07:27.501Z,21.02
2023-01-25T11:09:54.110Z,17.42
2023-01-25T11:12:20.938Z,17.00
2023-01-25T11:14:50.665Z,17.80
2023-01-25T11:17:31.348Z,21.10
2023-01-25T11:20:05.993Z,21.90
2023-01-25T11:22:32.222Z,22.20
2023-01-25T11:24:58.515Z,20.13
2023-01-25T11:27:26.420Z,16.58
2023-01-25T11:30:10.408Z,19.05
2023-01-25T11:32:40.103Z,19.63
2023-01-25T11:35:13.736Z,21.13
2023-01-25T11:37:46.389Z,18.88
2023-01-25T11:40:33.700Z,21.40
2023-01-25T11:43:13.173Z,15.80
2023-01-25T11:45:45.853Z,16.02
2023-01-25T11:48:23.562Z,16.95
2023-01-25T11:50:59.803Z,21.98
2023-01-25T11:53:38.178Z,22.50
2023-01-25T11:56:07.417Z,24.75
2023-01-25T11:58:33.665Z,24.73
2023-01-25T12:01:09.327Z,20.25
2023-01-25T12:03:46.626Z,23.73
2023-01-25T12:06:15.832Z,20.63
2023-01-25T12:08:58.051Z,20.58
2023-01-25T12:11:30.246Z,23.58
2023-01-25T12:14:29.021Z,18.08
2023-01-25T12:17:14.389Z,21.00
2023-01-25T12:19:49.812Z,11.93
2023-01-25T12:22:22.149Z,20.95
2023-01-25T12:24:59.234Z,22.80
2023-01-25T12:27:38.613Z,23.65
2023-01-25T12:30:13.806Z,23.27
2023-01-25T12:33:14.366Z,24.00
2023-01-25T12:35:54.453Z,20.73
2023-01-25T12:38:30.574Z,21.25
2023-01-25T12:40:59.622Z,18.83
2023-01-25T12:43:35.839Z,20.67
2023-01-25T12:46:06.310Z,13.25
2023-01-25T12:48:36.483Z,18.95
2023-01-25T12:51:02.682Z,18.77
2023-01-25T12:53:34.663Z,21.52
2023-01-25T12:56:01.624Z,21.70
2023-01-25T12:58:37.876Z,23.83
2023-01-25T13:01:11.466Z,20.80
2023-01-25T13:03:56.725Z,23.63
2023-01-25T13:06:28.903Z,24.88
2023-01-25T13:09:01.708Z,25.30
2023-01-25T13:11:38.641Z,25.52
2023-01-25T13:14:20.474Z,22.17
2023-01-25T13:16:50.155Z,19.70
2023-01-25T13:19:19.353Z,29.25
2023-01-25T13:21:46.933Z,26.83
2023-01-25T13:24:13.180Z,20.85
2023-01-25T13:26:54.726Z,26.98
2023-01-25T13:29:33.204Z,27.10
2023-01-25T13:31:59.983Z,19.92
2023-01-25T13:34:35.629Z,26.50
2023-01-25T13:37:14.290Z,27.50
2023-01-25T13:39:41.708Z,26.83
2023-01-25T13:42:10.895Z,25.77
2023-01-25T13:44:39.423Z,26.65
2023-01-25T13:47:07.139Z,27.63
2023-01-25T13:49:39.773Z,25.55
2023-01-25T13:52:06.612Z,28.05
2023-01-25T13:54:33.186Z,24.33
2023-01-25T13:57:03.157Z,28.48
2023-01-25T13:59:29.403Z,21.70
2023-01-25T14:01:57.086Z,25.27
2023-01-25T14:04:23.375Z,27.85
2023-01-25T14:06:55.282Z,24.38
2023-01-25T14:09:21.540Z,25.90
2023-01-25T14:14:21.117Z,27.92
2023-01-25T14:17:01.886Z,27.98
2023-01-25T14:19:29.897Z,26.38
2023-01-25T14:22:25.542Z,24.02
2023-01-25T14:25:13.057Z,26.70
2023-01-25T14:27:54.619Z,25.95
2023-01-25T14:30:24.644Z,26.60
2023-01-25T14:32:54.087Z,30.17
2023-01-25T14:35:42.237Z,28.63
2023-01-25T14:38:36.809Z,28.90
2023-01-25T14:41:16.281Z,26.98
2023-01-25T14:43:47.065Z,24.55
2023-01-25T14:46:31.308Z,26.27
2023-01-25T14:49:15.809Z,19.00
2023-01-25T14:51:48.783Z,25.13
2023-01-25T14:54:21.161Z,26.33
2023-01-25T14:56:51.111Z,26.85
2023-01-25T14:59:26.199Z,23.67
2023-01-25T15:01:54.415Z,21.83
2023-01-25T15:04:20.985Z,19.52
2023-01-25T15:06:49.954Z,25.77
2023-01-25T15:09:37.988Z,22.88
2023-01-25T15:12:25.875Z,27.05
2023-01-25T15:14:54.835Z,26.90
2023-01-25T15:17:40.685Z,25.75
2023-01-25T15:20:27.400Z,27.92
2023-01-25T15:22:55.986Z,28.83
2023-01-25T15:25:24.375Z,27.13
2023-01-25T15:27:51.104Z,28.55
2023-01-25T15:30:18.752Z,30.27
2023-01-25T15:32:46.614Z,25.05
2023-01-25T15:35:21.880Z,27.92
2023-01-25T15:37:49.485Z,26.42
2023-01-25T15:40:16.986Z,23.42
2023-01-25T15:42:43.320Z,28.98
2023-01-25T15:45:10.281Z,24.70
2023-01-25T15:47:38.248Z,28.15
2023-01-25T15:50:05.461Z,26.50
2023-01-25T15:52:31.830Z,28.83
2023-01-25T15:55:01.717Z,19.55
2023-01-25T15:57:32.785Z,27.80
2023-01-25T16:00:01.919Z,26.02
2023-01-25T16:02:28.665Z,29.27
2023-01-25T16:04:55.025Z,24.63
2023-01-25T16:07:25.711Z,26.50
2023-01-25T16:09:52.362Z,24.80
2023-01-25T16:12:19.042Z,27.80
2023-01-25T16:14:45.651Z,23.95
2023-01-25T16:17:17.388Z,25.33
2023-01-25T16:19:47.428Z,27.45
2023-01-25T16:22:18.234Z,23.17
2023-01-25T16:24:45.103Z,24.23
2023-01-25T16:27:20.069Z,23.75
2023-01-25T16:29:47.349Z,27.08
2023-01-25T16:32:13.712Z,25.58
2023-01-25T16:34:40.104Z,26.75
2023-01-25T16:37:06.407Z,26.05
2023-01-25T16:39:32.790Z,24.23
2023-01-25T16:41:59.166Z,22.00
2023-01-25T16:44:25.497Z,27.20
2023-01-25T16:46:51.790Z,26.92
2023-01-25T16:49:30.437Z,27.55
2023-01-25T16:51:58.032Z,16.75
2023-01-25T16:54:25.847Z,16.52
2023-01-25T16:56:53.706Z,20.25
2023-01-25T16:59:21.917Z,25.45
2023-01-25T17:01:48.621Z,26.50
2023-01-25T17:04:15.451Z,22.65
2023-01-25T17:06:45.281Z,25.30
2023-01-25T17:09:23.600Z,24.25
2023-01-25T17:11:51.545Z,26.27
2023-01-25T17:14:21.619Z,25.05
2023-01-25T17:16:51.345Z,20.90
2023-01-25T17:19:18.487Z,17.88
2023-01-25T17:21:45.772Z,15.75
2023-01-25T17:24:15.545Z,24.15
2023-01-25T17:26:42.414Z,22.40
2023-01-25T17:29:10.107Z,24.40
2023-01-25T17:31:37.310Z,23.92
2023-01-25T17:34:06.381Z,23.92
2023-01-25T17:36:33.036Z,23.58
2023-01-25T17:39:07.386Z,17.58
2023-01-25T17:41:33.953Z,23.35
2023-01-25T17:44:00.694Z,21.33
2023-01-25T17:46:30.001Z,21.38
2023-01-25T17:48:57.180Z,23.50
2023-01-25T17:51:24.969Z,23.98
2023-01-25T17:53:52.552Z,25.13
2023-01-25T17:56:19.184Z,24.35
2023-01-25T17:58:45.917Z,13.35
2023-01-25T18:01:16.764Z,23.98
2023-01-25T18:06:17.977Z,19.45
2023-01-25T18:08:47.721Z,23.35
2023-01-25T18:11:16.935Z,18.67
2023-01-25T18:13:46.012Z,21.77
2023-01-25T18:16:14.235Z,13.77
2023-01-25T18:18:42.645Z,23.75
2023-01-25T18:21:16.208Z,16.33
2023-01-25T18:23:47.317Z,15.35
2023-01-25T18:26:22.533Z,20.17
2023-01-25T18:28:51.834Z,17.45
2023-01-25T18:31:18.616Z,21.85
2023-01-25T18:33:45.190Z,23.05
2023-01-25T18:36:15.810Z,23.52
2023-01-25T18:38:42.151Z,21.50
2023-01-25T18:41:08.499Z,23.73
2023-01-25T18:43:35.759Z,22.38
2023-01-25T18:46:02.605Z,21.13
2023-01-25T18:48:32.325Z,23.42
2023-01-25T18:51:08.876Z,23.33
2023-01-25T18:53:36.868Z,20.80
2023-01-25T18:56:10.676Z,22.45
2023-01-25T18:58:37.512Z,22.27
2023-01-25T19:01:06.714Z,23.33
2023-01-25T19:03:33.231Z,22.17
2023-01-25T19:05:59.859Z,23.88
2023-01-25T19:08:27.590Z,22.98
2023-01-25T19:11:02.211Z,22.98
2023-01-25T19:13:30.134Z,24.42
2023-01-25T19:16:07.100Z,22.40
2023-01-25T19:18:40.501Z,21.20
2023-01-25T19:21:08.561Z,22.38
2023-01-25T19:23:37.129Z,20.35
2023-01-25T19:26:04.798Z,24.80
2023-01-25T19:28:31.484Z,19.63
2023-01-25T19:31:06.223Z,22.13
2023-01-25T19:33:32.793Z,19.20
2023-01-25T19:36:00.482Z,20.88
2023-01-25T19:38:27.214Z,20.23
2023-01-25T19:40:53.536Z,22.42
2023-01-25T19:43:19.892Z,24.23
2023-01-25T19:45:46.270Z,20.48
2023-01-25T19:48:12.664Z,21.95
2023-01-25T19:50:38.967Z,20.90
2023-01-25T19:53:06.647Z,23.70
2023-01-25T19:55:33.327Z,20.25
2023-01-25T19:57:59.881Z,23.88
2023-01-25T20:00:27.240Z,24.90
2023-01-25T20:02:57.382Z,21.92
2023-01-25T20:05:27.860Z,23.63
2023-01-25T20:07:54.166Z,23.63
2023-01-25T20:10:20.575Z,20.50
2023-01-25T20:12:46.924Z,24.45
2023-01-25T20:15:14.534Z,22.98
2023-01-25T20:17:41.885Z,25.33
2023-01-25T20:20:10.567Z,23.40
2023-01-25T20:22:37.351Z,26.30
2023-01-25T20:25:03.892Z,24.63
2023-01-25T20:27:30.245Z,24.20
2023-01-25T20:29:56.688Z,20.13
2023-01-25T20:32:32.258Z,24.83
2023-01-25T20:35:03.199Z,25.27
2023-01-25T20:37:29.521Z,24.48
2023-01-25T20:39:56.344Z,24.60
2023-01-25T20:42:23.080Z,23.23
2023-01-25T20:44:49.473Z,22.95
2023-01-25T20:47:15.836Z,22.85
2023-01-25T20:49:42.156Z,22.17
2023-01-25T20:52:12.800Z,20.48
2023-01-25T20:54:41.228Z,23.80
2023-01-25T20:57:08.042Z,20.92
2023-01-25T20:59:34.368Z,22.50
2023-01-25T21:02:00.884Z,20.67
2023-01-25T21:04:27.225Z,23.73
2023-01-25T21:06:53.548Z,23.38
2023-01-25T21:09:19.847Z,20.67
2023-01-25T21:11:46.211Z,25.67
2023-01-25T21:14:12.572Z,24.02
2023-01-25T21:16:38.988Z,23.35
2023-01-25T21:19:06.883Z,21.85
2023-01-25T21:21:34.590Z,23.13
2023-01-25T21:24:02.407Z,25.75
2023-01-25T21:26:31.252Z,23.77
2023-01-25T21:28:59.350Z,25.02
2023-01-25T21:31:32.659Z,23.83
2023-01-25T21:33:59.699Z,26.42
2023-01-25T21:36:27.674Z,25.35
2023-01-25T21:38:55.431Z,25.52
2023-01-25T21:41:28.963Z,24.38
2023-01-25T21:44:15.457Z,18.13
2023-01-25T21:46:49.188Z,23.60
2023-01-25T21:49:41.107Z,23.50
2023-01-25T21:52:07.476Z,22.50
2023-01-25T21:54:35.920Z,23.83
2023-01-25T21:57:08.306Z,21.95
2023-01-25T21:59:39.658Z,22.52
2023-01-25T22:02:08.435Z,23.17
2023-01-25T22:04:35.939Z,22.65
2023-01-25T22:07:03.175Z,23.73
2023-01-25T22:09:29.658Z,24.77
2023-01-25T22:11:56.010Z,21.98
2023-01-25T22:14:24.930Z,22.25
2023-01-25T22:16:51.982Z,16.52
2023-01-25T22:19:18.410Z,26.95
2023-01-25T22:21:45.548Z,24.08
2023-01-25T22:24:12.561Z,24.77
2023-01-25T22:26:44.905Z,26.33
2023-01-25T22:29:12.122Z,22.67
2023-01-25T22:31:38.821Z,21.45
2023-01-25T22:34:05.248Z,25.42
2023-01-25T22:36:31.887Z,19.48
2023-01-25T22:39:00.072Z,27.88
2023-01-25T22:41:29.214Z,25.15
2023-01-25T22:43:56.388Z,26.13
2023-01-25T22:46:25.921Z,24.08
2023-01-25T22:48:52.320Z,24.52
2023-01-25T22:51:25.507Z,24.33
2023-01-25T22:53:52.534Z,23.75
2023-01-25T22:56:25.097Z,24.33
2023-01-25T22:58:52.109Z,23.23
2023-01-25T23:01:23.900Z,23.83
2023-01-25T23:03:51.689Z,22.02
2023-01-25T23:06:21.033Z,24.00
2023-01-25T23:08:48.477Z,10.98
2023-01-25T23:11:17.624Z,21.02
2023-01-25T23:14:04.049Z,21.48
2023-01-25T23:16:30.687Z,23.73
2023-01-25T23:18:58.115Z,22.02
2023-01-25T23:21:27.440Z,20.98
2023-01-25T23:23:54.992Z,23.35
2023-01-25T23:26:21.738Z,22.40
2023-01-25T23:28:53.132Z,23.27
2023-01-25T23:31:21.614Z,21.38
2023-01-25T23:33:53.607Z,24.52
2023-01-25T23:36:28.704Z,23.65
2023-01-25T23:38:56.214Z,23.73
2023-01-25T23:41:26.052Z,23.30
2023-01-25T23:43:52.788Z,21.73
2023-01-25T23:46:19.358Z,22.38
2023-01-25T23:48:46.695Z,20.50
2023-01-25T23:51:14.936Z,18.60
2023-01-25T23:53:41.855Z,21.17
2023-01-25T23:56:12.393Z,20.17
2023-01-25T23:58:39.098Z,20.42
